ADDS METAR Data INFO
IDs: Format: Raw Decoded Include TAF

Data at: 0936 UTC 11 Dec 2017

KCWV 110915Z AUTO 00000KT 10SM CLR M01/M02 A3025 RMK AO2 T10121019
KCWV 110855Z AUTO 00000KT 10SM CLR M01/M01 A3026 RMK AO2 T10111015
KCWV 110835Z AUTO 00000KT 10SM CLR M01/M01 A3027 RMK AO2 T10111014
KCWV 110815Z AUTO 00000KT 10SM CLR M01/M01 A3027 RMK AO2 T10111014
KCWV 110755Z AUTO 00000KT 10SM CLR M01/M01 A3028 RMK AO2 T10081011
KCWV 110735Z AUTO 00000KT 10SM CLR M01/M01 A3028 RMK AO2 T10071010
KCWV 110715Z AUTO 00000KT 10SM CLR 00/M01 A3027 RMK AO2 T10051009
KCWV 110655Z AUTO 00000KT 10SM CLR 00/M01 A3027 RMK AO2 T10051008
KCWV 110635Z AUTO 00000KT 10SM CLR 00/M01 A3027 RMK AO2 T10051008
KCWV 110615Z AUTO 00000KT 7SM CLR 00/M01 A3027 RMK AO2 T10051007
KCWV 110555Z AUTO 00000KT 10SM CLR 00/M01 A3027 RMK AO2 T10051009 10027 21005 401081010
KCWV 110535Z AUTO 00000KT 7SM CLR 00/00 A3027 RMK AO2 T10011005
KCWV 110515Z AUTO 00000KT 7SM CLR 00/00 A3028 RMK AO2 T00001002
KCWV 110455Z AUTO 00000KT 7SM CLR 00/00 A3028 RMK AO2 T00001001
KCWV 110435Z AUTO 00000KT 7SM CLR 00/00 A3028 RMK AO2 T00000000
KCWV 110415Z AUTO 00000KT 7SM CLR 00/00 A3028 RMK AO2 T00030001
KCWV 110355Z AUTO 00000KT 7SM CLR 00/00 A3028 RMK AO2 T00020000
KCWV 110335Z AUTO 00000KT 7SM CLR 01/00 A3028 RMK AO2 T00050002
KCWV 110315Z AUTO 00000KT 7SM CLR 01/00 A3027 RMK AO2 T00050002
KCWV 110255Z AUTO 00000KT 7SM CLR 01/00 A3027 RMK AO2 T00050002
KCWV 110235Z AUTO 00000KT 7SM CLR 01/00 A3027 RMK AO2 T00050002
KCWV 110215Z AUTO 00000KT 10SM CLR 01/01 A3028 RMK AO2 T00080005
KCWV 110155Z AUTO 00000KT 10SM CLR 01/01 A3027 RMK AO2 T00100006
KCWV 110135Z AUTO 00000KT 7SM CLR 01/01 A3026 RMK AO2 T00100007
KCWV 110115Z AUTO 00000KT 10SM CLR 01/01 A3026 RMK AO2 T00120010
KCWV 110055Z AUTO 00000KT 10SM CLR 01/01 A3026 RMK AO2 T00140010
KCWV 110035Z AUTO 00000KT 10SM CLR 02/01 A3026 RMK AO2 T00190013
KCWV 110015Z AUTO 00000KT 10SM CLR 03/02 A3026 RMK AO2 T00250018
KCWV 102355Z AUTO 00000KT 10SM CLR 03/02 A3026 RMK AO2 T00270020 10108 20027
KCWV 102335Z AUTO 00000KT 10SM CLR 03/02 A3026 RMK AO2 T00330022
KCWV 102315Z AUTO 00000KT 10SM CLR 04/02 A3025 RMK AO2 T00400022
KCWV 102255Z AUTO 00000KT 10SM CLR 05/02 A3025 RMK AO2 T00500024
KCWV 102235Z AUTO 00000KT 10SM CLR 06/02 A3024 RMK AO2 T00560023
KCWV 102215Z AUTO 00000KT 10SM CLR 07/02 A3024 RMK AO2 T00690017
KCWV 102155Z AUTO 00000KT 10SM CLR 09/00 A3024 RMK AO2 T00921004
KCWV 102135Z AUTO 24004KT 10SM CLR 10/M02 A3024 RMK AO2 T01031022
KCWV 102115Z AUTO 20004KT 10SM CLR 11/M02 A3023 RMK AO2 T01051022
KCWV 102055Z AUTO 23006KT 10SM CLR 11/M02 A3023 RMK AO2 T01061023
KCWV 102035Z AUTO 25007KT 10SM CLR 11/M03 A3024 RMK AO2 T01071027
KCWV 102015Z AUTO 23005KT 10SM CLR 11/M02 A3024 RMK AO2 T01071022
KCWV 101955Z AUTO 21003KT 10SM CLR 10/M02 A3025 RMK AO2 T01041024
KCWV 101935Z AUTO 24005KT 10SM CLR 10/M02 A3025 RMK AO2 T01021025
KCWV 101915Z AUTO 22006KT 10SM CLR 10/M02 A3025 RMK AO2 T01021018
KCWV 101855Z AUTO 25007KT 10SM CLR 10/M03 A3026 RMK AO2 T00961026
KCWV 101835Z AUTO 25009KT 10SM CLR 09/M03 A3026 RMK AO2 T00921032
KCWV 101815Z AUTO 26007KT 10SM CLR 09/M03 A3026 RMK AO2 T00891028
KCWV 101755Z AUTO 26005KT 10SM CLR 08/M03 A3027 RMK AO2 T00841029 10085 21010
KCWV 101735Z AUTO 00000KT 10SM CLR 08/M02 A3028 RMK AO2 T00811024
KCWV 101715Z AUTO 00000KT 10SM CLR 08/M03 A3029 RMK AO2 T00761027
KCWV 101655Z AUTO 23003KT 10SM CLR 08/M02 A3030 RMK AO2 T00761020
KCWV 101635Z AUTO 23004KT 10SM CLR 07/M02 A3031 RMK AO2 T00741020
KCWV 101615Z AUTO 31005KT 10SM CLR 06/M03 A3031 RMK AO2 T00621027
KCWV 101555Z AUTO 30004KT 10SM CLR 06/M03 A3031 RMK AO2 T00561029
KCWV 101535Z AUTO 31004KT 10SM CLR 05/M02 A3032 RMK AO2 T00521025
KCWV 101515Z AUTO 28003KT 10SM CLR 05/M02 A3032 RMK AO2 T00461020
KCWV 101455Z AUTO 27006KT 10SM CLR 04/M02 A3032 RMK AO2 T00391017
KCWV 101435Z AUTO 27005KT 10SM CLR 03/M01 A3032 RMK AO2 T00341012
KCWV 101415Z AUTO 27005KT 10SM CLR 03/M01 A3031 RMK AO2 T00261006
KCWV 101355Z AUTO 24003KT 10SM CLR 02/M01 A3031 RMK AO2 T00161010
KCWV 101335Z AUTO 25004KT 10SM CLR 01/M01 A3030 RMK AO2 T00071009
KCWV 101315Z AUTO 24003KT 10SM CLR 00/M01 A3030 RMK AO2 T00001010
KCWV 101255Z AUTO 24003KT 10SM CLR 00/M01 A3030 RMK AO2 T10051015
KCWV 101235Z AUTO 24003KT 10SM CLR M01/M01 A3029 RMK AO2 T10071015
KCWV 101215Z AUTO 00000KT 10SM CLR M01/M01 A3029 RMK AO2 T10071015
KCWV 101155Z AUTO 00000KT 10SM CLR M01/M01 A3028 RMK AO2 T10081015 10015 21010
KCWV 101135Z AUTO 00000KT 10SM CLR M01/M01 A3027 RMK AO2 T10071012
KCWV 101115Z AUTO 00000KT 10SM CLR M01/M01 A3026 RMK AO2 T10081014
KCWV 101055Z AUTO 00000KT 10SM CLR M01/M01 A3026 RMK AO2 T10061013
KCWV 101035Z AUTO 22003KT 10SM CLR 00/M01 A3024 RMK AO2 T10021011
KCWV 101015Z AUTO 22003KT 10SM CLR 00/M01 A3023 RMK AO2 T10011011
KCWV 100955Z AUTO 00000KT 10SM CLR 00/M01 A3023 RMK AO2 T10021010
KCWV 100935Z AUTO 00000KT 10SM CLR 00/M01 A3022 RMK AO2 T00011012
KCWV 100915Z AUTO 00000KT 10SM CLR 01/M01 A3021 RMK AO2 T00071012
KCWV 100855Z AUTO 24005KT 10SM CLR 01/M01 A3021 RMK AO2 T00101011
KCWV 100835Z AUTO 25005KT 10SM CLR 01/M01 A3020 RMK AO2 T00101011
KCWV 100815Z AUTO 25005KT 10SM CLR 01/M01 A3019 RMK AO2 T00101012
KCWV 100755Z AUTO 25005KT 10SM CLR 01/M01 A3019 RMK AO2 T00091012
KCWV 100735Z AUTO 24003KT 10SM CLR 01/M01 A3018 RMK AO2 T00071013
KCWV 100715Z AUTO 24004KT 10SM CLR 01/M01 A3018 RMK AO2 T00111013
KCWV 100655Z AUTO 23004KT 10SM CLR 01/M01 A3018 RMK AO2 T00141012
KCWV 100635Z AUTO 23003KT 10SM CLR 02/M01 A3017 RMK AO2 T00151011
KCWV 100615Z AUTO 23003KT 10SM CLR 01/M01 A3017 RMK AO2 T00111009
KCWV 100555Z AUTO 00000KT 10SM CLR 01/00 A3017 RMK AO2 T00061003 10031 20001 400770001
KCWV 100535Z AUTO 22003KT 10SM CLR 01/00 A3016 RMK AO2 T00050000
KCWV 100515Z AUTO 00000KT 10SM CLR 01/00 A3016 RMK AO2 T00060000
KCWV 100455Z AUTO 00000KT 7SM CLR 01/00 A3016 RMK AO2 T00060001
KCWV 100435Z AUTO 23003KT 10SM CLR 01/00 A3016 RMK AO2 T00120000
KCWV 100415Z AUTO 22003KT 10SM CLR 01/00 A3016 RMK AO2 T00120002
KCWV 100355Z AUTO 23003KT 10SM CLR 02/00 A3015 RMK AO2 T00180002
KCWV 100335Z AUTO 23004KT 10SM CLR 02/00 A3014 RMK AO2 T00210003
KCWV 100315Z AUTO 23004KT 10SM CLR 03/01 A3013 RMK AO2 T00250006
KCWV 100255Z AUTO 24004KT 10SM CLR 03/01 A3013 RMK AO2 T00250010
KCWV 100235Z AUTO 23004KT 10SM CLR 02/01 A3012 RMK AO2 T00170011
KCWV 100215Z AUTO 23003KT 5SM BR CLR 01/01 A3010 RMK AO2 T00130011
KCWV 100155Z AUTO 00000KT 2 1/2SM BR CLR 01/01 A3010 RMK AO2 T00120010
KCWV 100135Z AUTO 00000KT 2 1/2SM BR CLR 01/01 A3009 RMK AO2 T00130011
KCWV 100120Z AUTO 00000KT 7SM CLR 01/01 A3008 RMK AO2 T00130010
KCWV 100055Z AUTO 00000KT 3SM BR CLR 02/02 A3007 RMK AO2 T00180015
KCWV 100035Z AUTO 00000KT 5SM BR CLR 02/02 A3007 RMK AO2 T00220020
KCWV 100015Z AUTO 00000KT 7SM CLR 03/02 A3005 RMK AO2 T00260023
KCWV 092355Z AUTO 00000KT 10SM CLR 03/02 A3005 RMK AO2 T00310023 10077 20031
KCWV 092335Z AUTO 00000KT 10SM CLR 04/03 A3004 RMK AO2 T00370026
KCWV 092315Z AUTO 00000KT 10SM CLR 05/02 A3003 RMK AO2 T00460024
KCWV 092255Z AUTO 23005KT 10SM CLR 05/02 A3002 RMK AO2 T00530023
KCWV 092235Z AUTO 24005KT 10SM SCT024 06/02 A3001 RMK AO2 T00560023
KCWV 092215Z AUTO 25008KT 10SM OVC022 06/03 A2999 RMK AO2 T00620027
KCWV 092155Z AUTO 23007KT 10SM BKN017 OVC023 06/03 A2999 RMK AO2 T00620029